Time;durP1;ratioP1;P1;durP2;ratioP2;P2;SDS_P1;SDS_P2;PMS_P1;PMS_P2;Temp;Humidity;BMP_temperature;BMP_pressure;BME280_temperature;BME280_humidity;BME280_pressure;Samples;Min_cycle;Max_cycle;Signal;HPM_P1;HPM_P2
2022/01/08 00:01:56;;;;;;;1.70;1.60;;;1.90;99.90;;;;;;4991650;28;20041;-67
2022/01/08 00:04:21;;;;;;;2.13;1.55;;;1.80;99.90;;;;;;4991530;28;20037;-67
2022/01/08 00:06:47;;;;;;;1.60;1.10;;;1.80;99.90;;;;;;4990480;28;20129;-67
2022/01/08 00:09:13;;;;;;;1.70;1.60;;;1.80;99.90;;;;;;4990328;28;20026;-67
2022/01/08 00:11:41;;;;;;;1.40;1.30;;;1.80;99.90;;;;;;4991233;28;20379;-67
2022/01/08 00:14:09;;;;;;;2.95;1.40;;;1.80;99.90;;;;;;5006065;28;20030;-67
2022/01/08 00:16:37;;;;;;;2.60;1.38;;;1.70;99.90;;;;;;4991207;28;20030;-67
2022/01/08 00:19:06;;;;;;;2.08;1.20;;;1.80;99.90;;;;;;4990029;28;20041;-67
2022/01/08 00:21:32;;;;;;;2.10;1.33;;;1.80;99.90;;;;;;4991854;28;20045;-67
2022/01/08 00:23:58;;;;;;;3.10;1.40;;;1.80;99.90;;;;;;5006342;28;20384;-68
2022/01/08 00:26:23;;;;;;;1.95;1.50;;;1.80;99.90;;;;;;4991040;28;20038;-67
2022/01/08 00:28:49;;;;;;;1.58;1.08;;;1.80;99.90;;;;;;5006327;28;20030;-67
2022/01/08 00:31:15;;;;;;;1.35;1.15;;;1.80;99.90;;;;;;4990520;28;20019;-67
2022/01/08 00:33:41;;;;;;;1.40;1.20;;;1.80;99.90;;;;;;4991700;28;20030;-67
2022/01/08 00:36:07;;;;;;;1.30;1.20;;;1.80;99.90;;;;;;4990640;28;20383;-67
2022/01/08 00:38:33;;;;;;;1.70;1.25;;;1.80;99.90;;;;;;4990095;28;20026;-67
2022/01/08 00:40:59;;;;;;;2.90;1.20;;;1.80;99.90;;;;;;4991049;28;20033;-67
2022/01/08 00:43:25;;;;;;;2.17;1.20;;;1.80;99.90;;;;;;4990851;28;20026;-67
2022/01/08 00:45:51;;;;;;;1.30;1.20;;;1.80;99.90;;;;;;4990018;28;20363;-67
2022/01/08 00:48:17;;;;;;;2.65;1.40;;;1.80;99.90;;;;;;4990050;28;20022;-67
2022/01/08 00:50:43;;;;;;;1.25;1.15;;;1.80;99.90;;;;;;4990997;28;20491;-69
2022/01/08 00:53:09;;;;;;;1.27;1.17;;;1.80;99.90;;;;;;5005916;28;20041;-67
2022/01/08 00:55:35;;;;;;;4.13;1.45;;;1.80;99.90;;;;;;5007064;28;20109;-67
2022/01/08 00:58:00;;;;;;;1.15;1.05;;;1.80;99.90;;;;;;5005819;28;20030;-68
2022/01/08 01:00:26;;;;;;;2.88;1.20;;;1.80;99.90;;;;;;4990900;28;20077;-68
2022/01/08 01:02:53;;;;;;;1.30;1.15;;;1.80;99.90;;;;;;4990112;28;20153;-68
2022/01/08 01:05:19;;;;;;;1.33;1.00;;;1.80;99.90;;;;;;4990983;28;20022;-68
2022/01/08 01:07:45;;;;;;;2.47;1.55;;;1.80;99.90;;;;;;4988757;28;20032;-68
2022/01/08 01:10:11;;;;;;;2.92;1.10;;;1.80;99.90;;;;;;4990768;28;20038;-68
2022/01/08 01:12:37;;;;;;;1.23;1.00;;;1.70;99.90;;;;;;4995832;28;20018;-68
2022/01/08 01:17:30;;;;;;;1.25;1.15;;;1.80;99.90;;;;;;5009421;28;20050;-68
2022/01/08 01:19:56;;;;;;;1.85;1.30;;;1.80;99.90;;;;;;5009899;28;20026;-68
2022/01/08 01:22:26;;;;;;;1.23;1.13;;;1.80;99.90;;;;;;4995219;28;20390;-68
2022/01/08 01:24:59;;;;;;;1.20;1.10;;;1.80;99.90;;;;;;4991342;28;20509;-68
2022/01/08 01:30:15;;;;;;;1.40;1.30;;;1.80;99.90;;;;;;5011325;28;20247;-68
2022/01/08 01:41:13;;;;;;;1.30;1.20;;;1.80;99.90;;;;;;5011141;28;20429;-68
2022/01/08 01:49:09;;;;;;;1.63;1.20;;;1.80;99.90;;;;;;5010095;28;20052;-68
2022/01/08 01:51:35;;;;;;;2.40;1.50;;;1.80;99.90;;;;;;4991174;28;20034;-69
2022/01/08 01:54:02;;;;;;;3.30;1.40;;;1.70;99.90;;;;;;4992709;28;20431;-68
2022/01/08 01:56:28;;;;;;;1.25;1.15;;;1.70;99.90;;;;;;4993204;28;20049;-69
2022/01/08 01:58:53;;;;;;;2.65;1.60;;;1.60;99.90;;;;;;4992836;28;20030;-72
2022/01/08 02:01:19;;;;;;;1.48;1.38;;;1.60;99.90;;;;;;4993280;28;20037;-68
2022/01/08 02:03:45;;;;;;;1.58;1.42;;;1.50;99.90;;;;;;4993125;28;20520;-68
2022/01/08 02:06:11;;;;;;;1.42;1.33;;;1.50;99.90;;;;;;4992177;28;20530;-69
2022/01/08 02:08:38;;;;;;;1.98;1.48;;;1.50;99.90;;;;;;4991946;28;20025;-68
2022/01/08 02:11:05;;;;;;;1.90;1.40;;;1.50;99.90;;;;;;4992905;28;20375;-69
2022/01/08 02:13:32;;;;;;;2.25;1.60;;;1.50;99.90;;;;;;4992919;28;20033;-68
2022/01/08 02:16:00;;;;;;;3.42;1.67;;;1.50;99.90;;;;;;4992519;28;20041;-68
2022/01/08 02:18:26;;;;;;;1.83;1.70;;;1.50;99.90;;;;;;4999400;28;20103;-68
2022/01/08 02:20:53;;;;;;;2.78;1.60;;;1.50;99.90;;;;;;4992862;28;20033;-69
2022/01/08 02:23:19;;;;;;;2.28;1.70;;;1.50;99.90;;;;;;4995482;28;20056;-69
2022/01/08 02:25:44;;;;;;;3.25;1.85;;;1.40;99.90;;;;;;4992837;28;20029;-69
2022/01/08 02:28:10;;;;;;;2.15;1.95;;;1.40;99.90;;;;;;4992747;28;20026;-69
2022/01/08 02:30:36;;;;;;;3.08;2.10;;;1.30;99.90;;;;;;4993055;28;20029;-68
2022/01/08 02:33:02;;;;;;;5.55;2.10;;;1.30;99.90;;;;;;4992474;28;20478;-68
2022/01/08 02:35:28;;;;;;;4.45;2.20;;;1.30;99.90;;;;;;4992579;28;20087;-69
2022/01/08 02:37:54;;;;;;;4.25;2.30;;;1.20;99.90;;;;;;4992199;28;20021;-68
2022/01/08 02:40:21;;;;;;;2.55;2.00;;;1.20;99.90;;;;;;5010510;28;20062;-68
2022/01/08 02:42:53;;;;;;;5.68;2.40;;;1.20;99.90;;;;;;4991567;28;20628;-69
2022/01/08 02:45:21;;;;;;;4.77;2.13;;;1.20;99.90;;;;;;4992715;28;20479;-69
2022/01/08 02:47:47;;;;;;;3.00;1.92;;;1.20;99.90;;;;;;4991970;28;20038;-68
2022/01/08 02:50:13;;;;;;;2.90;1.80;;;1.20;99.90;;;;;;4992966;28;20098;-69
2022/01/08 02:52:41;;;;;;;2.97;2.22;;;1.20;99.90;;;;;;4992753;28;20396;-69
2022/01/08 02:55:07;;;;;;;4.10;1.95;;;1.20;99.90;;;;;;4993270;28;20030;-69
2022/01/08 02:57:33;;;;;;;6.25;2.30;;;1.20;99.90;;;;;;4992325;28;20030;-69
2022/01/08 02:59:59;;;;;;;3.28;2.08;;;1.20;99.90;;;;;;4992892;28;20034;-68
2022/01/08 03:02:25;;;;;;;5.88;2.25;;;1.20;99.90;;;;;;4992067;28;20026;-68
2022/01/08 03:04:52;;;;;;;3.15;2.28;;;1.20;99.90;;;;;;4992704;28;20049;-68
2022/01/08 03:07:18;;;;;;;6.40;2.03;;;1.20;99.90;;;;;;4992480;28;20482;-68
2022/01/08 03:09:46;;;;;;;4.25;2.15;;;1.20;99.90;;;;;;4992853;28;20030;-68
2022/01/08 03:12:12;;;;;;;3.25;2.20;;;1.20;99.90;;;;;;4992419;28;20018;-68
2022/01/08 03:14:37;;;;;;;4.15;1.92;;;1.20;99.90;;;;;;4992850;28;20451;-69
2022/01/08 03:17:03;;;;;;;10.07;2.72;;;1.20;99.90;;;;;;4993566;28;20116;-68
2022/01/08 03:19:29;;;;;;;5.40;2.22;;;1.30;99.90;;;;;;4996477;28;20026;-69
2022/01/08 03:21:57;;;;;;;4.80;2.38;;;1.30;99.90;;;;;;4996068;28;20061;-68
2022/01/08 03:24:27;;;;;;;2.95;2.50;;;1.20;99.90;;;;;;4995681;28;20025;-69
2022/01/08 03:26:54;;;;;;;3.92;2.47;;;1.30;99.90;;;;;;4996204;28;20018;-68
2022/01/08 03:29:21;;;;;;;5.05;2.38;;;1.30;99.90;;;;;;4996025;28;20033;-68
2022/01/08 03:31:46;;;;;;;4.32;2.55;;;1.30;99.90;;;;;;4996279;28;20785;-68
2022/01/08 03:34:12;;;;;;;4.88;2.47;;;1.30;99.90;;;;;;4996285;28;20034;-68
2022/01/08 03:36:38;;;;;;;3.22;2.50;;;1.40;99.90;;;;;;4995318;28;20033;-68
2022/01/08 03:39:04;;;;;;;5.95;2.67;;;1.40;99.90;;;;;;4999515;28;20021;-68
2022/01/08 03:41:30;;;;;;;7.10;2.88;;;1.40;99.90;;;;;;5014022;28;20034;-69
2022/01/08 03:43:55;;;;;;;3.60;2.63;;;1.40;99.90;;;;;;4995609;28;20034;-68
2022/01/08 03:46:22;;;;;;;3.28;2.50;;;1.50;99.90;;;;;;5013774;28;20030;-69
2022/01/08 03:49:13;;;;;;;7.10;2.92;;;1.50;99.90;;;;;;4995191;28;20108;-69
2022/01/08 03:51:40;;;;;;;6.28;3.00;;;1.50;99.90;;;;;;4995781;28;20030;-69
2022/01/08 03:54:06;;;;;;;5.50;2.60;;;1.50;99.90;;;;;;4995567;28;20117;-69
2022/01/08 03:56:31;;;;;;;3.60;2.78;;;1.50;99.90;;;;;;4995481;28;20056;-69
2022/01/08 03:58:57;;;;;;;5.03;3.03;;;1.60;99.90;;;;;;4994900;28;20034;-68
2022/01/08 04:01:23;;;;;;;2.88;2.60;;;1.60;99.90;;;;;;4995619;28;20477;-69
2022/01/08 04:03:48;;;;;;;6.28;2.80;;;1.60;99.90;;;;;;4995341;28;20037;-69
2022/01/08 04:06:14;;;;;;;5.18;2.97;;;1.60;99.90;;;;;;4995782;28;20033;-69
2022/01/08 04:08:40;;;;;;;6.05;3.38;;;1.60;99.90;;;;;;5012021;28;20088;-69
2022/01/08 04:11:05;;;;;;;3.47;3.17;;;1.60;99.90;;;;;;4995337;28;20042;-69
2022/01/08 04:13:35;;;;;;;3.58;2.75;;;1.60;99.90;;;;;;4995057;28;20501;-69
2022/01/08 04:16:10;;;;;;;6.32;3.22;;;1.60;99.90;;;;;;4995654;28;20038;-70
2022/01/08 04:18:35;;;;;;;6.43;2.97;;;1.60;99.90;;;;;;4995694;28;20029;-69
2022/01/08 04:23:33;;;;;;;5.30;2.60;;;1.60;99.90;;;;;;5012546;28;20037;-69
2022/01/08 04:25:58;;;;;;;10.15;3.45;;;1.60;99.90;;;;;;4984777;28;20018;-69
2022/01/08 04:28:24;;;;;;;4.45;3.40;;;1.60;99.90;;;;;;4993909;28;20113;-70
2022/01/08 04:30:49;;;;;;;4.72;3.35;;;1.60;99.90;;;;;;4995512;28;20022;-69
2022/01/08 04:33:15;;;;;;;6.85;3.20;;;1.60;99.90;;;;;;5012377;28;20034;-69
2022/01/08 04:35:41;;;;;;;5.07;2.97;;;1.60;99.90;;;;;;4994862;28;20024;-69
2022/01/08 04:38:07;;;;;;;4.03;2.92;;;1.60;99.90;;;;;;4994456;28;20061;-69
2022/01/08 04:40:33;;;;;;;4.20;2.88;;;1.60;99.90;;;;;;4994729;28;20030;-69
2022/01/08 04:43:02;;;;;;;5.03;2.92;;;1.60;99.90;;;;;;4994856;28;20077;-69
2022/01/08 04:45:29;;;;;;;8.70;3.20;;;1.60;99.90;;;;;;4994535;28;20072;-69
2022/01/08 04:48:00;;;;;;;10.38;3.28;;;1.60;99.90;;;;;;4994314;28;20030;-69
2022/01/08 04:50:27;;;;;;;6.80;2.90;;;1.60;99.90;;;;;;5010968;28;20033;-69
2022/01/08 04:52:53;;;;;;;5.22;3.10;;;1.60;99.90;;;;;;5010552;28;20096;-70
2022/01/08 04:55:19;;;;;;;6.13;3.00;;;1.50;99.90;;;;;;5009791;28;20030;-69
2022/01/08 04:57:45;;;;;;;4.35;3.08;;;1.50;99.90;;;;;;4994208;28;20048;-69
2022/01/08 05:00:11;;;;;;;4.40;3.05;;;1.50;99.90;;;;;;4994515;28;20117;-69
2022/01/08 05:02:37;;;;;;;4.05;3.10;;;1.40;99.90;;;;;;4993779;28;20026;-68
2022/01/08 05:05:03;;;;;;;6.35;3.08;;;1.40;99.90;;;;;;5011678;28;20033;-69
2022/01/08 05:07:28;;;;;;;7.05;3.25;;;1.40;99.90;;;;;;4993848;28;20038;-69
2022/01/08 05:09:54;;;;;;;6.90;3.40;;;1.40;99.90;;;;;;4992206;28;20034;-69
2022/01/08 05:12:20;;;;;;;4.60;3.10;;;1.40;99.90;;;;;;4992608;28;20432;-69
2022/01/08 05:14:45;;;;;;;5.40;3.60;;;1.30;99.90;;;;;;4986027;28;20496;-69
2022/01/08 05:17:14;;;;;;;4.65;3.55;;;1.30;99.90;;;;;;4993441;28;20029;-69
2022/01/08 05:19:47;;;;;;;5.07;3.30;;;1.30;99.90;;;;;;4993858;28;20029;-69
2022/01/08 05:22:23;;;;;;;3.65;2.67;;;1.30;99.90;;;;;;4993751;28;20030;-69
2022/01/08 05:24:49;;;;;;;5.50;3.38;;;1.30;99.90;;;;;;4993758;28;20029;-69
2022/01/08 05:27:17;;;;;;;4.18;3.42;;;1.30;99.90;;;;;;4993015;28;20398;-69
2022/01/08 05:29:44;;;;;;;4.43;3.30;;;1.30;99.90;;;;;;4993844;28;20022;-69
2022/01/08 05:32:16;;;;;;;5.00;2.95;;;1.30;99.90;;;;;;4994039;28;20112;-69
2022/01/08 05:34:43;;;;;;;6.38;2.70;;;1.30;99.90;;;;;;4993853;28;20642;-69
2022/01/08 05:37:09;;;;;;;3.20;2.35;;;1.30;99.90;;;;;;4992881;28;20033;-69
2022/01/08 05:39:35;;;;;;;5.05;2.70;;;1.30;99.90;;;;;;4993272;28;20383;-69
2022/01/08 05:42:00;;;;;;;5.07;2.45;;;1.30;99.90;;;;;;4993532;28;20037;-69
2022/01/08 05:44:26;;;;;;;2.63;2.20;;;1.30;99.90;;;;;;4992880;28;20026;-69
2022/01/08 05:46:52;;;;;;;2.78;2.30;;;1.30;99.90;;;;;;4993643;28;20029;-69
2022/01/08 05:49:17;;;;;;;2.20;2.00;;;1.30;99.90;;;;;;4992914;28;20030;-69
2022/01/08 05:51:43;;;;;;;2.20;2.00;;;1.40;99.90;;;;;;4993787;28;20018;-69
2022/01/08 05:54:09;;;;;;;2.35;1.90;;;1.40;99.90;;;;;;4993061;28;20030;-69
2022/01/08 05:56:35;;;;;;;1.90;1.65;;;1.40;99.90;;;;;;4992974;28;20056;-69
2022/01/08 05:59:01;;;;;;;2.22;2.00;;;1.40;99.90;;;;;;4992618;28;20037;-69
2022/01/08 06:01:27;;;;;;;2.53;1.40;;;1.40;99.90;;;;;;4993320;28;20029;-68
2022/01/08 06:03:53;;;;;;;1.60;1.48;;;1.50;99.90;;;;;;4992750;28;20034;-69
2022/01/08 06:06:18;;;;;;;1.58;1.45;;;1.50;99.90;;;;;;4993838;28;20064;-70
2022/01/08 06:08:44;;;;;;;1.50;1.40;;;1.50;99.90;;;;;;4992466;28;20584;-70
2022/01/08 06:11:10;;;;;;;1.60;1.50;;;1.50;99.90;;;;;;4989603;28;20117;-70
2022/01/08 06:13:35;;;;;;;1.20;1.20;;;1.50;99.90;;;;;;4997246;28;20029;-71
2022/01/08 06:16:01;;;;;;;1.20;1.13;;;1.60;99.90;;;;;;4993693;28;20034;-70
2022/01/08 06:18:27;;;;;;;1.00;1.00;;;1.60;99.90;;;;;;4991902;28;20418;-69
2022/01/08 06:20:55;;;;;;;0.85;0.85;;;1.60;99.90;;;;;;4988058;28;20029;-70
2022/01/08 06:23:21;;;;;;;1.00;1.00;;;1.50;99.90;;;;;;4993252;28;20100;-70
2022/01/08 06:25:47;;;;;;;1.00;1.00;;;1.60;99.90;;;;;;4993374;28;20058;-70
2022/01/08 06:28:12;;;;;;;1.30;1.20;;;1.50;99.90;;;;;;4992477;28;20014;-70
2022/01/08 06:30:38;;;;;;;0.90;0.90;;;1.50;99.90;;;;;;4992594;28;20533;-70
2022/01/08 06:33:04;;;;;;;1.67;1.00;;;1.50;99.90;;;;;;4992992;28;20050;-70
2022/01/08 06:35:29;;;;;;;0.90;0.90;;;1.50;99.90;;;;;;5006814;28;20038;-69
2022/01/08 06:37:55;;;;;;;1.00;1.00;;;1.50;99.90;;;;;;4992255;28;20061;-70
2022/01/08 06:40:21;;;;;;;1.05;1.05;;;1.50;99.90;;;;;;4992195;28;20461;-70
2022/01/08 06:42:46;;;;;;;1.50;1.40;;;1.50;99.90;;;;;;4990144;28;20033;-70
2022/01/08 06:45:12;;;;;;;1.67;0.75;;;1.50;99.90;;;;;;5001694;28;20448;-70
2022/01/08 06:47:38;;;;;;;1.38;1.30;;;1.50;99.90;;;;;;5001036;28;20041;-70
2022/01/08 06:50:04;;;;;;;1.30;1.20;;;1.50;99.90;;;;;;4993181;28;20033;-71
2022/01/08 06:52:32;;;;;;;1.00;1.00;;;1.50;99.90;;;;;;5002621;28;20025;-70
2022/01/08 06:54:58;;;;;;;1.33;1.25;;;1.50;99.90;;;;;;4997332;28;20029;-70
2022/01/08 06:57:23;;;;;;;1.50;1.40;;;1.50;99.90;;;;;;4995107;28;20549;-70
2022/01/08 06:59:49;;;;;;;1.65;1.55;;;1.50;99.90;;;;;;4996527;28;20034;-71
2022/01/08 07:02:15;;;;;;;2.13;1.75;;;1.40;99.90;;;;;;4996589;28;20041;-70
2022/01/08 07:04:40;;;;;;;1.90;1.80;;;1.40;99.90;;;;;;4996268;28;20033;-70
2022/01/08 07:07:06;;;;;;;2.65;2.20;;;1.40;99.90;;;;;;4995751;28;20037;-70
2022/01/08 07:09:31;;;;;;;2.50;2.30;;;1.30;99.90;;;;;;4993066;28;20025;-69
2022/01/08 07:11:57;;;;;;;2.58;2.38;;;1.30;99.90;;;;;;4995952;28;20034;-69
2022/01/08 07:14:23;;;;;;;3.42;2.50;;;1.30;99.90;;;;;;4995872;28;20026;-69
2022/01/08 07:16:49;;;;;;;3.05;2.75;;;1.30;99.90;;;;;;5053247;23;20045;-64
2022/01/08 07:19:14;;;;;;;3.13;2.83;;;1.20;99.90;;;;;;5067394;28;20060;-62
2022/01/08 07:21:40;;;;;;;2.80;2.60;;;1.20;99.90;;;;;;5041639;28;20049;-62
2022/01/08 07:24:06;;;;;;;2.85;2.63;;;1.20;99.90;;;;;;5040909;28;20493;-63
2022/01/08 07:26:31;;;;;;;3.00;2.70;;;1.20;99.90;;;;;;5030503;28;20021;-65
2022/01/08 07:28:57;;;;;;;3.10;2.80;;;1.20;99.90;;;;;;5036612;28;20021;-65
2022/01/08 07:31:23;;;;;;;3.22;2.92;;;1.10;99.90;;;;;;5026861;28;20084;-64
2022/01/08 07:33:49;;;;;;;3.42;3.00;;;1.10;99.90;;;;;;5047204;28;20029;-65
2022/01/08 07:36:17;;;;;;;3.75;3.10;;;1.10;99.90;;;;;;5035047;28;20056;-65
2022/01/08 07:38:43;;;;;;;4.38;3.60;;;1.10;99.90;;;;;;5028375;28;20026;-66
2022/01/08 07:41:09;;;;;;;4.57;4.18;;;1.00;99.90;;;;;;5032284;28;20033;-65
2022/01/08 07:43:34;;;;;;;3.00;2.50;;;1.00;99.90;;;;;;5032809;28;20030;-64
2022/01/08 07:46:00;;;;;;;2.85;2.40;;;1.10;99.90;;;;;;5041468;28;20412;-64
2022/01/08 07:48:26;;;;;;;6.82;5.53;;;1.10;99.90;;;;;;5032184;28;20032;-64
2022/01/08 07:50:51;;;;;;;3.28;2.70;;;1.00;99.90;;;;;;5046245;28;20025;-67
2022/01/08 07:53:18;;;;;;;3.40;3.10;;;1.00;99.90;;;;;;5031596;28;20021;-64
2022/01/08 07:55:44;;;;;;;2.97;2.70;;;1.00;99.90;;;;;;5035654;28;20033;-64
2022/01/08 07:58:10;;;;;;;3.13;2.83;;;1.00;99.90;;;;;;5031508;28;20034;-66
2022/01/08 08:00:35;;;;;;;2.92;2.50;;;1.00;99.90;;;;;;5040617;28;20025;-64
2022/01/08 08:03:01;;;;;;;3.72;2.75;;;1.00;99.90;;;;;;5032116;28;20095;-64
2022/01/08 08:05:27;;;;;;;2.38;2.17;;;1.00;99.90;;;;;;5036328;28;20025;-64
2022/01/08 08:07:55;;;;;;;4.00;3.40;;;1.10;99.90;;;;;;5034304;28;20643;-64
2022/01/08 08:10:22;;;;;;;3.90;2.70;;;1.10;99.90;;;;;;5042446;28;20124;-66
2022/01/08 08:12:48;;;;;;;4.40;2.30;;;1.10;99.90;;;;;;5031709;28;20215;-63
2022/01/08 08:15:15;;;;;;;2.50;1.92;;;1.10;99.90;;;;;;5036434;28;20116;-66
2022/01/08 08:17:41;;;;;;;2.50;2.30;;;1.10;99.90;;;;;;5033367;28;20061;-65
2022/01/08 08:20:07;;;;;;;3.60;2.13;;;1.10;99.90;;;;;;5038636;28;20515;-64
2022/01/08 08:22:34;;;;;;;2.97;1.92;;;1.00;99.90;;;;;;5023694;28;20100;-65
2022/01/08 08:25:00;;;;;;;3.00;1.90;;;1.00;99.90;;;;;;5031258;28;20025;-67
2022/01/08 08:27:25;;;;;;;1.80;1.70;;;1.00;99.90;;;;;;5041306;28;20551;-63
2022/01/08 08:29:51;;;;;;;1.73;1.63;;;1.00;99.90;;;;;;5039257;28;20397;-64
2022/01/08 08:32:17;;;;;;;1.95;1.85;;;1.00;99.90;;;;;;5031968;28;20033;-65
2022/01/08 08:34:43;;;;;;;1.90;1.80;;;1.00;99.90;;;;;;5031361;28;20026;-64
2022/01/08 08:37:08;;;;;;;1.65;1.55;;;1.00;99.90;;;;;;5031326;28;20577;-63
2022/01/08 08:39:34;;;;;;;1.73;1.63;;;1.00;99.90;;;;;;5031330;28;20374;-65
2022/01/08 08:41:59;;;;;;;1.90;1.80;;;1.00;99.90;;;;;;5034714;28;20033;-65
2022/01/08 08:44:25;;;;;;;2.80;2.60;;;1.00;99.90;;;;;;5047939;28;20025;-64
2022/01/08 08:46:51;;;;;;;2.33;2.15;;;1.00;99.90;;;;;;5026554;28;20025;-63
2022/01/08 08:49:16;;;;;;;4.07;2.35;;;1.00;99.90;;;;;;5038598;28;20493;-62
2022/01/08 08:51:42;;;;;;;3.42;3.00;;;1.00;99.90;;;;;;5038863;28;20171;-64
2022/01/08 08:54:08;;;;;;;2.50;2.30;;;1.00;99.90;;;;;;5031957;28;20069;-65
2022/01/08 08:56:34;;;;;;;3.08;2.75;;;1.00;99.90;;;;;;5038236;28;20029;-65
2022/01/08 08:58:59;;;;;;;3.28;2.85;;;1.00;99.90;;;;;;5031550;28;20116;-63
2022/01/08 09:01:27;;;;;;;3.35;3.05;;;1.00;99.90;;;;;;5034715;28;20577;-63
2022/01/08 09:03:53;;;;;;;4.38;2.97;;;1.10;99.90;;;;;;5050931;28;20391;-63
2022/01/08 09:06:19;;;;;;;7.82;3.40;;;1.00;99.90;;;;;;5042281;28;20028;-64
2022/01/08 09:08:45;;;;;;;5.20;4.00;;;1.10;99.90;;;;;;5038326;28;20048;-64
2022/01/08 09:11:11;;;;;;;4.35;3.88;;;1.10;99.90;;;;;;5047592;28;20040;-65
2022/01/08 09:13:36;;;;;;;5.05;4.25;;;1.00;99.90;;;;;;5035453;28;20018;-65
2022/01/08 09:16:02;;;;;;;11.70;5.97;;;1.10;99.90;;;;;;5031166;28;20091;-65
2022/01/08 09:18:28;;;;;;;8.77;5.10;;;1.10;99.90;;;;;;5040213;28;20025;-64
2022/01/08 09:20:54;;;;;;;8.02;5.00;;;1.10;99.90;;;;;;5032643;28;20036;-66
2022/01/08 09:23:20;;;;;;;10.85;5.10;;;1.10;99.90;;;;;;5036898;28;20060;-65
2022/01/08 09:25:45;;;;;;;8.23;5.90;;;1.10;99.90;;;;;;5029667;28;20091;-65
2022/01/08 09:28:11;;;;;;;9.65;5.10;;;1.10;99.90;;;;;;5031635;28;20017;-66
2022/01/08 09:30:37;;;;;;;8.25;5.35;;;1.10;99.90;;;;;;5037866;28;20021;-65
2022/01/08 09:33:02;;;;;;;10.10;5.88;;;1.10;99.90;;;;;;5032552;28;20448;-65
2022/01/08 09:35:28;;;;;;;65.07;18.75;;;1.20;99.90;;;;;;5032096;28;20034;-66
2022/01/08 09:37:55;;;;;;;168.45;30.88;;;1.20;99.90;;;;;;5024077;28;20116;-64
2022/01/08 09:40:22;;;;;;;113.40;28.20;;;1.30;99.90;;;;;;5022381;28;20038;-65
2022/01/08 09:42:50;;;;;;;59.75;19.92;;;1.30;99.90;;;;;;5041142;28;20028;-65
2022/01/08 09:45:16;;;;;;;47.38;15.77;;;1.40;99.90;;;;;;5030332;28;20021;-64
2022/01/08 09:47:42;;;;;;;23.50;11.35;;;1.40;99.90;;;;;;5018740;28;20108;-64
2022/01/08 09:50:08;;;;;;;12.45;7.95;;;1.40;99.90;;;;;;5030311;28;20029;-64
2022/01/08 09:52:36;;;;;;;11.43;7.07;;;1.40;99.90;;;;;;5029405;28;20203;-65
2022/01/08 09:55:03;;;;;;;12.25;5.82;;;1.50;99.90;;;;;;5031386;28;20366;-65
2022/01/08 09:57:28;;;;;;;15.10;5.40;;;1.50;99.90;;;;;;5028714;28;20029;-65
2022/01/08 09:59:54;;;;;;;9.30;5.43;;;1.60;99.90;;;;;;5027220;28;20624;-65
2022/01/08 10:02:23;;;;;;;9.88;4.90;;;1.60;99.90;;;;;;5032069;28;20029;-65
2022/01/08 10:04:50;;;;;;;9.95;4.60;;;1.60;99.90;;;;;;5032616;28;20644;-65
2022/01/08 10:07:16;;;;;;;5.60;3.90;;;1.70;99.90;;;;;;5040438;28;21954;-63
2022/01/08 10:09:58;;;;;;;8.63;4.10;;;1.70;99.90;;;;;;5040833;28;20029;-65
2022/01/08 10:12:36;;;;;;;6.50;3.75;;;1.70;99.90;;;;;;5030697;28;20017;-66
2022/01/08 10:17:48;;;;;;;4.32;2.80;;;1.80;99.90;;;;;;5029522;28;20086;-65
2022/01/08 10:20:31;;;;;;;7.35;3.13;;;1.80;99.90;;;;;;5032056;28;20463;-63
2022/01/08 10:23:17;;;;;;;4.72;2.95;;;1.70;99.90;;;;;;5010247;28;20030;-65
2022/01/08 10:26:11;;;;;;;4.10;2.90;;;1.70;99.90;;;;;;5029410;28;20409;-65
2022/01/08 10:28:47;;;;;;;5.05;2.92;;;1.60;99.90;;;;;;5042318;28;20030;-64
2022/01/08 10:31:16;;;;;;;5.05;2.63;;;1.50;99.90;;;;;;5034411;28;20071;-65
2022/01/08 10:33:48;;;;;;;4.07;2.97;;;1.50;99.90;;;;;;5050424;28;20080;-65
2022/01/08 10:36:14;;;;;;;;;;;1.40;99.90;;;;;;5033680;28;20538;-65
2022/01/08 10:38:41;;;;;;;4.03;3.15;;;1.40;99.90;;;;;;5033074;28;19959;-65
2022/01/08 10:41:13;;;;;;;6.35;2.90;;;1.30;99.90;;;;;;5033828;28;20026;-64
2022/01/08 10:43:39;;;;;;;9.23;3.53;;;1.30;99.90;;;;;;5033984;28;20029;-65
2022/01/08 10:46:11;;;;;;;11.75;3.33;;;1.30;99.90;;;;;;5033962;28;20036;-65
2022/01/08 10:48:41;;;;;;;7.03;3.10;;;1.30;99.90;;;;;;5034146;28;20033;-65
2022/01/08 10:51:14;;;;;;;9.50;3.67;;;1.40;99.90;;;;;;5033941;28;20318;-65
2022/01/08 10:53:52;;;;;;;5.53;3.25;;;1.40;99.90;;;;;;5031368;28;20029;-64
2022/01/08 10:56:25;;;;;;;8.13;3.45;;;1.40;99.90;;;;;;5042876;28;20032;-67
2022/01/08 10:58:56;;;;;;;8.05;3.40;;;1.40;99.90;;;;;;5032602;28;20029;-65
2022/01/08 11:02:00;;;;;;;8.23;3.38;;;1.50;99.90;;;;;;5046751;28;20029;-64
2022/01/08 11:04:41;;;;;;;9.65;4.55;;;1.50;99.90;;;;;;5028842;28;20527;-64
2022/01/08 11:07:09;;;;;;;11.43;4.65;;;1.50;99.90;;;;;;5033219;28;20074;-65
2022/01/08 11:09:37;;;;;;;6.93;3.28;;;1.60;99.90;;;;;;5032382;28;20018;-68
2022/01/08 11:12:05;;;;;;;8.55;3.58;;;1.60;99.90;;;;;;5029980;28;20174;-67
2022/01/08 11:17:40;;;;;;;14.32;5.90;;;1.70;99.90;;;;;;5027095;28;20047;-65
2022/01/08 11:20:13;;;;;;;5.85;3.35;;;1.80;99.90;;;;;;5030223;28;20420;-66
2022/01/08 11:22:47;;;;;;;9.77;3.90;;;1.80;99.90;;;;;;5043814;28;20075;-65
2022/01/08 11:25:16;;;;;;;8.05;3.40;;;1.80;99.90;;;;;;5019516;28;20025;-67
2022/01/08 11:28:02;;;;;;;10.15;4.05;;;1.90;99.90;;;;;;5029873;28;20038;-64
2022/01/08 11:30:30;;;;;;;6.53;3.53;;;2.00;99.90;;;;;;5016763;28;20308;-64
2022/01/08 11:33:02;;;;;;;8.05;3.15;;;2.00;99.90;;;;;;5028232;28;20029;-65
2022/01/08 11:35:30;;;;;;;8.73;2.97;;;2.00;99.90;;;;;;5045641;28;20320;-66
2022/01/08 11:37:56;;;;;;;8.07;3.10;;;2.10;99.90;;;;;;5031832;28;20713;-68
2022/01/08 11:40:26;;;;;;;7.28;2.95;;;2.10;99.90;;;;;;5027529;28;20022;-68
2022/01/08 11:42:53;;;;;;;5.28;2.80;;;2.10;99.90;;;;;;5035236;28;20651;-66
2022/01/08 11:45:30;;;;;;;6.82;2.50;;;2.10;99.90;;;;;;5043597;28;20097;-67
2022/01/08 11:47:58;;;;;;;4.80;2.53;;;2.10;99.90;;;;;;5033028;28;20466;-67
2022/01/08 11:50:27;;;;;;;3.20;2.40;;;2.10;99.90;;;;;;5031646;28;20022;-64
2022/01/08 11:53:10;;;;;;;6.55;2.80;;;2.10;99.90;;;;;;5032560;28;20528;-67
2022/01/08 11:55:36;;;;;;;8.10;2.90;;;2.10;99.90;;;;;;5019859;28;20541;-66
2022/01/08 11:58:23;;;;;;;5.15;2.90;;;2.00;99.90;;;;;;5041459;28;20585;-67
2022/01/08 12:00:59;;;;;;;7.15;2.80;;;2.00;99.90;;;;;;5031907;28;20017;-67
2022/01/08 12:03:39;;;;;;;9.13;2.83;;;2.00;99.90;;;;;;5030029;28;20060;-69
2022/01/08 12:06:29;;;;;;;3.53;2.70;;;2.00;99.90;;;;;;5031439;28;20049;-68
2022/01/08 12:09:07;;;;;;;6.15;2.78;;;2.00;99.90;;;;;;5028443;28;20029;-66
2022/01/08 12:11:54;;;;;;;7.93;2.40;;;2.00;99.90;;;;;;5032050;28;20552;-65
2022/01/08 12:14:25;;;;;;;11.20;3.15;;;2.00;99.90;;;;;;5031546;28;20505;-66
2022/01/08 12:16:54;;;;;;;5.30;2.60;;;2.00;99.90;;;;;;5031791;28;20056;-67
2022/01/08 12:19:43;;;;;;;4.75;2.80;;;2.00;99.90;;;;;;5031164;28;20038;-67
2022/01/08 12:22:21;;;;;;;8.30;3.05;;;2.00;99.90;;;;;;5015665;28;20093;-67
2022/01/08 12:24:55;;;;;;;5.15;2.80;;;2.00;99.90;;;;;;5031270;28;20374;-65
2022/01/08 12:27:33;;;;;;;7.50;3.67;;;2.10;99.90;;;;;;5031433;28;20029;-65
2022/01/08 12:30:01;;;;;;;5.95;3.00;;;2.10;99.90;;;;;;5028868;28;20037;-66
2022/01/08 12:35:02;;;;;;;3.70;2.45;;;2.20;99.90;;;;;;5032932;28;20036;-66
2022/01/08 12:37:43;;;;;;;4.13;2.60;;;2.30;99.90;;;;;;5030731;28;20041;-69
2022/01/08 12:40:11;;;;;;;6.78;2.40;;;2.30;99.90;;;;;;5053786;28;20032;-65
2022/01/08 12:42:42;;;;;;;6.22;2.80;;;2.40;99.90;;;;;;5030977;28;20123;-67
2022/01/08 12:45:18;;;;;;;4.88;2.30;;;2.40;99.90;;;;;;5031937;28;20025;-66
2022/01/08 12:48:05;;;;;;;3.72;2.25;;;2.40;99.90;;;;;;5047150;28;20390;-66
2022/01/08 12:50:30;;;;;;;8.38;2.92;;;2.50;99.90;;;;;;5015577;28;20448;-67
2022/01/08 12:53:09;;;;;;;4.50;2.08;;;2.50;99.90;;;;;;5030778;28;20022;-67
2022/01/08 12:55:50;;;;;;;3.22;2.00;;;2.50;99.90;;;;;;5047927;28;20556;-66
2022/01/08 12:58:19;;;;;;;6.10;2.22;;;2.40;99.90;;;;;;5029734;28;20112;-66
2022/01/08 13:01:22;;;;;;;5.50;2.35;;;2.40;99.90;;;;;;5032330;28;20553;-66
2022/01/08 13:03:51;;;;;;;10.05;4.10;;;2.40;99.90;;;;;;4937606;28;20090;-65
2022/01/08 13:06:34;;;;;;;7.20;3.22;;;2.30;99.90;;;;;;5036566;28;20482;-66
2022/01/08 13:09:03;;;;;;;5.38;2.03;;;2.30;99.90;;;;;;5048612;28;20033;-66
2022/01/08 13:11:32;;;;;;;3.20;2.08;;;2.30;99.90;;;;;;5027442;28;20072;-67
2022/01/08 13:14:14;;;;;;;6.32;2.75;;;2.30;99.90;;;;;;5032437;28;20041;-66
2022/01/08 13:16:42;;;;;;;9.32;2.55;;;2.30;99.90;;;;;;5029509;28;20064;-67
2022/01/08 13:19:29;;;;;;;4.90;1.77;;;2.30;99.90;;;;;;5033761;28;20029;-66
2022/01/08 13:22:02;;;;;;;5.10;3.20;;;2.30;99.90;;;;;;5033286;28;20463;-66
2022/01/08 13:24:46;;;;;;;3.35;2.10;;;2.30;99.90;;;;;;5031307;28;20053;-66
2022/01/08 13:27:22;;;;;;;21.25;8.07;;;2.30;99.90;;;;;;5029460;28;20028;-67
2022/01/08 13:29:49;;;;;;;8.68;4.35;;;2.30;99.90;;;;;;5027413;28;20021;-66
2022/01/08 13:32:17;;;;;;;8.07;2.15;;;2.30;99.90;;;;;;5023952;28;20018;-67